createdAt,value
2019-01-16T00:01:48.428Z,5.10
2019-01-16T00:04:36.484Z,4.67
2019-01-16T00:07:24.455Z,4.93
2019-01-16T00:10:19.748Z,4.23
2019-01-16T00:13:06.588Z,4.33
2019-01-16T00:15:55.760Z,5.50
2019-01-16T00:18:50.732Z,5.17
2019-01-16T00:21:40.588Z,4.37
2019-01-16T00:24:33.772Z,4.87
2019-01-16T00:27:33.979Z,4.87
2019-01-16T00:30:21.743Z,5.13
2019-01-16T00:33:05.260Z,5.63
2019-01-16T00:35:46.952Z,5.42
2019-01-16T00:38:40.176Z,5.83
2019-01-16T00:41:32.383Z,5.50
2019-01-16T00:44:25.211Z,5.17
2019-01-16T00:47:12.448Z,5.50
2019-01-16T00:50:01.224Z,5.10
2019-01-16T00:52:53.425Z,4.80
2019-01-16T00:55:45.660Z,6.13
2019-01-16T00:58:33.421Z,6.17
2019-01-16T01:01:20.491Z,5.87
2019-01-16T01:04:28.018Z,5.67
2019-01-16T01:07:20.264Z,5.37
2019-01-16T01:10:12.324Z,6.37
2019-01-16T01:12:57.963Z,5.10
2019-01-16T01:15:52.345Z,5.40
2019-01-16T01:18:40.881Z,6.43
2019-01-16T01:21:30.448Z,4.93
2019-01-16T01:24:08.462Z,6.03
2019-01-16T01:26:56.599Z,5.40
2019-01-16T01:29:36.576Z,5.83
2019-01-16T01:32:23.172Z,5.17
2019-01-16T01:35:18.253Z,5.70
2019-01-16T01:38:22.551Z,4.70
2019-01-16T01:41:24.027Z,4.97
2019-01-16T01:44:11.901Z,4.83
2019-01-16T01:46:52.735Z,4.23
2019-01-16T01:49:50.411Z,5.00
2019-01-16T01:52:39.002Z,4.53
2019-01-16T01:55:36.506Z,5.23
2019-01-16T01:58:18.825Z,4.70
2019-01-16T02:01:14.108Z,4.60
2019-01-16T02:04:06.423Z,5.20
2019-01-16T02:06:50.397Z,4.30
2019-01-16T02:09:45.630Z,4.63
2019-01-16T02:12:34.344Z,4.97
2019-01-16T02:15:37.453Z,3.57
2019-01-16T02:18:47.448Z,4.20
2019-01-16T02:21:35.892Z,4.87
2019-01-16T02:24:27.912Z,4.27
2019-01-16T02:27:13.403Z,3.80
2019-01-16T02:30:05.927Z,4.03
2019-01-16T02:33:01.144Z,3.90
2019-01-16T02:35:56.541Z,3.80
2019-01-16T02:38:35.520Z,3.37
2019-01-16T02:41:24.781Z,3.63
2019-01-16T02:44:22.888Z,4.13
2019-01-16T02:47:05.579Z,3.73
2019-01-16T02:49:58.081Z,4.30
2019-01-16T02:52:56.480Z,4.17
2019-01-16T02:55:45.728Z,5.40
2019-01-16T02:58:37.768Z,5.00
2019-01-16T03:01:25.496Z,4.87
2019-01-16T03:04:14.295Z,6.13
2019-01-16T03:07:02.885Z,6.77
2019-01-16T03:09:56.397Z,5.03
2019-01-16T03:12:54.916Z,3.97
2019-01-16T03:15:42.829Z,5.10
2019-01-16T03:18:32.283Z,4.60
2019-01-16T03:21:20.116Z,4.80
2019-01-16T03:24:10.600Z,5.07
2019-01-16T03:26:57.019Z,4.00
2019-01-16T03:29:43.724Z,3.50
2019-01-16T03:32:32.961Z,3.80
2019-01-16T03:35:18.560Z,4.30
2019-01-16T03:38:13.912Z,3.87
2019-01-16T03:41:07.336Z,3.67
2019-01-16T03:43:55.683Z,4.00
2019-01-16T03:47:03.053Z,4.43
2019-01-16T03:49:43.461Z,3.63
2019-01-16T03:52:38.423Z,3.63
2019-01-16T03:55:39.755Z,3.53
2019-01-16T03:58:22.435Z,3.17
2019-01-16T04:01:17.862Z,3.40
2019-01-16T04:04:05.448Z,3.60
2019-01-16T04:07:12.864Z,2.93
2019-01-16T04:10:08.380Z,3.70
2019-01-16T04:13:03.220Z,3.23
2019-01-16T04:16:04.432Z,3.60
2019-01-16T04:18:56.618Z,3.40
2019-01-16T04:21:45.881Z,2.97
2019-01-16T04:24:38.147Z,4.13
2019-01-16T04:27:30.404Z,3.10
2019-01-16T04:30:18.227Z,3.03
2019-01-16T04:33:13.519Z,3.43
2019-01-16T04:35:59.513Z,3.30
2019-01-16T04:38:57.515Z,2.87
2019-01-16T04:41:44.221Z,2.90
2019-01-16T04:44:32.292Z,3.80
2019-01-16T04:47:28.800Z,3.83
2019-01-16T04:50:16.664Z,3.33
2019-01-16T04:53:17.799Z,3.13
2019-01-16T04:56:07.081Z,4.10
2019-01-16T04:58:54.662Z,4.63
2019-01-16T05:01:58.527Z,4.33
2019-01-16T05:04:47.040Z,3.97
2019-01-16T05:07:35.128Z,4.07
2019-01-16T05:10:31.602Z,3.73
2019-01-16T05:13:19.230Z,3.67
2019-01-16T05:16:05.573Z,4.37
2019-01-16T05:18:53.596Z,3.97
2019-01-16T05:21:39.488Z,3.43
2019-01-16T05:24:27.415Z,4.17
2019-01-16T05:27:15.337Z,4.50
2019-01-16T05:30:03.124Z,3.90
2019-01-16T05:32:40.906Z,3.93
2019-01-16T05:35:29.161Z,4.13
2019-01-16T05:38:08.976Z,3.83
2019-01-16T05:41:01.280Z,4.17
2019-01-16T05:43:42.904Z,3.73
2019-01-16T05:46:31.036Z,3.97
2019-01-16T05:49:18.379Z,3.53
2019-01-16T05:52:22.907Z,4.27
2019-01-16T05:55:17.599Z,4.63
2019-01-16T05:58:05.597Z,4.13
2019-01-16T06:00:54.291Z,4.03
2019-01-16T06:03:43.444Z,4.33
2019-01-16T06:06:31.284Z,4.47
2019-01-16T06:09:23.464Z,4.10
2019-01-16T06:12:24.232Z,4.50
2019-01-16T06:15:24.772Z,4.40
2019-01-16T06:18:07.244Z,4.70
2019-01-16T06:20:52.695Z,4.53
2019-01-16T06:23:54.209Z,4.83
2019-01-16T06:26:42.863Z,6.20
2019-01-16T06:29:38.231Z,5.47
2019-01-16T06:32:20.788Z,5.97
2019-01-16T06:35:08.236Z,6.53
2019-01-16T06:38:06.233Z,6.33
2019-01-16T06:41:01.200Z,6.70
2019-01-16T06:43:47.944Z,5.70
2019-01-16T06:46:39.866Z,7.33
2019-01-16T06:49:20.744Z,6.97
2019-01-16T06:52:06.395Z,7.20
2019-01-16T06:55:10.228Z,7.20
2019-01-16T06:58:16.452Z,8.60
2019-01-16T07:00:57.899Z,7.53
2019-01-16T07:03:46.633Z,9.27
2019-01-16T07:06:32.412Z,9.00
2019-01-16T07:09:27.440Z,8.07
2019-01-16T07:12:12.580Z,7.93
2019-01-16T07:15:07.591Z,8.37
2019-01-16T07:17:49.380Z,7.80
2019-01-16T07:20:42.235Z,7.53
2019-01-16T07:23:30.368Z,7.33
2019-01-16T07:26:19.171Z,8.20
2019-01-16T07:29:22.740Z,8.80
2019-01-16T07:32:26.347Z,8.27
2019-01-16T07:35:15.526Z,8.23
2019-01-16T07:37:55.538Z,8.10
2019-01-16T07:40:42.712Z,8.37
2019-01-16T07:43:31.383Z,7.80
2019-01-16T07:46:20.520Z,8.77
2019-01-16T07:49:11.960Z,7.70
2019-01-16T07:51:59.827Z,7.77
2019-01-16T07:55:03.585Z,7.40
2019-01-16T07:57:58.911Z,7.97
2019-01-16T08:01:07.208Z,7.17
2019-01-16T08:03:54.536Z,7.57
2019-01-16T08:06:49.335Z,7.80
2019-01-16T08:09:25.481Z,6.20
2019-01-16T08:12:23.454Z,7.23
2019-01-16T08:15:09.125Z,6.33
2019-01-16T08:18:16.359Z,6.70
2019-01-16T08:21:11.959Z,7.03
2019-01-16T08:23:52.984Z,8.13
2019-01-16T08:26:41.733Z,7.20
2019-01-16T08:29:28.869Z,7.30
2019-01-16T08:32:13.112Z,8.20
2019-01-16T08:35:00.908Z,7.50
2019-01-16T08:37:42.455Z,8.47
2019-01-16T08:40:29.780Z,8.47
2019-01-16T08:43:10.848Z,7.30
2019-01-16T08:45:47.979Z,7.00
2019-01-16T08:48:45.736Z,7.57
2019-01-16T08:51:34.556Z,8.13
2019-01-16T08:54:29.859Z,9.83
2019-01-16T08:57:17.680Z,8.57
2019-01-16T09:00:15.960Z,7.57
2019-01-16T09:03:02.393Z,7.30
2019-01-16T09:05:56.192Z,6.33
2019-01-16T09:08:56.691Z,6.40
2019-01-16T09:11:57.852Z,7.20
2019-01-16T09:14:54.276Z,6.27
2019-01-16T09:17:46.575Z,7.20
2019-01-16T09:20:26.432Z,6.67
2019-01-16T09:23:33.461Z,6.40
2019-01-16T09:26:20.536Z,6.13
2019-01-16T09:29:21.847Z,6.83
2019-01-16T09:32:26.225Z,6.27
2019-01-16T09:35:07.741Z,6.27
2019-01-16T09:37:49.178Z,6.53
2019-01-16T09:40:36.384Z,7.30
2019-01-16T09:43:24.179Z,6.67
2019-01-16T09:46:12.096Z,6.43
2019-01-16T09:49:04.276Z,7.00
2019-01-16T09:51:47.879Z,6.60
2019-01-16T09:54:34.476Z,7.27
2019-01-16T09:57:33.183Z,7.17
2019-01-16T10:00:20.888Z,6.10
2019-01-16T10:03:11.539Z,6.60
2019-01-16T10:06:00.203Z,5.70
2019-01-16T10:08:54.834Z,6.93
2019-01-16T10:11:39.613Z,6.90
2019-01-16T10:14:27.420Z,5.90
2019-01-16T10:17:18.736Z,7.60
2019-01-16T10:20:02.289Z,8.00
2019-01-16T10:22:41.804Z,7.57
2019-01-16T10:25:30.923Z,7.63
2019-01-16T10:28:18.947Z,6.53
2019-01-16T10:31:15.475Z,7.37
2019-01-16T10:34:02.882Z,8.40
2019-01-16T10:36:50.652Z,6.53
2019-01-16T10:39:47.756Z,7.63
2019-01-16T10:42:46.192Z,6.47
2019-01-16T10:45:49.900Z,7.53
2019-01-16T10:48:37.904Z,6.40
2019-01-16T10:51:33.636Z,6.27
2019-01-16T10:54:41.033Z,7.07
2019-01-16T10:57:28.456Z,6.33
2019-01-16T11:00:35.511Z,7.37
2019-01-16T11:03:42.988Z,6.17
2019-01-16T11:06:40.715Z,6.73
2019-01-16T11:09:28.205Z,6.83
2019-01-16T11:12:15.482Z,6.90
2019-01-16T11:15:02.533Z,7.17
2019-01-16T11:18:00.100Z,6.67
2019-01-16T11:20:58.399Z,7.07
2019-01-16T11:23:46.467Z,6.30
2019-01-16T11:26:35.216Z,6.73
2019-01-16T11:29:39.504Z,6.80
2019-01-16T11:32:23.531Z,6.63
2019-01-16T11:35:21.908Z,6.83
2019-01-16T11:38:11.215Z,6.33
2019-01-16T11:40:58.946Z,6.00
2019-01-16T11:43:46.261Z,6.42
2019-01-16T11:46:25.691Z,6.30
2019-01-16T11:49:13.976Z,7.53
2019-01-16T11:52:05.993Z,7.20
2019-01-16T11:55:07.401Z,6.80
2019-01-16T11:58:02.619Z,6.37
2019-01-16T12:00:57.999Z,6.50
2019-01-16T12:03:53.060Z,6.57
2019-01-16T12:06:29.993Z,6.13
2019-01-16T12:09:15.431Z,6.13
2019-01-16T12:12:03.564Z,6.47
2019-01-16T12:14:51.751Z,6.70
2019-01-16T12:17:39.948Z,6.07
2019-01-16T12:20:22.575Z,6.90
2019-01-16T12:23:08.356Z,5.83
2019-01-16T12:25:56.210Z,6.70
2019-01-16T12:28:41.697Z,7.08
2019-01-16T12:31:18.371Z,7.17
2019-01-16T12:34:07.520Z,7.90
2019-01-16T12:36:54.850Z,7.87
2019-01-16T12:39:40.328Z,7.53
2019-01-16T12:42:17.483Z,7.33
2019-01-16T12:45:07.149Z,7.90
2019-01-16T12:47:58.881Z,7.10
2019-01-16T12:50:46.219Z,7.00
2019-01-16T12:53:34.792Z,7.23
2019-01-16T12:56:27.184Z,6.97
2019-01-16T12:59:07.161Z,6.57
2019-01-16T13:02:08.189Z,6.70
2019-01-16T13:04:56.296Z,7.43
2019-01-16T13:08:04.224Z,6.47
2019-01-16T13:10:45.108Z,7.60
2019-01-16T13:13:30.731Z,6.83
2019-01-16T13:16:18.181Z,7.27
2019-01-16T13:19:06.280Z,7.23
2019-01-16T13:22:07.225Z,7.00
2019-01-16T13:25:05.469Z,6.20
2019-01-16T13:27:53.640Z,6.63
2019-01-16T13:30:55.270Z,6.20
2019-01-16T13:33:46.288Z,7.33
2019-01-16T13:36:38.048Z,6.63
2019-01-16T13:39:27.464Z,5.90
2019-01-16T13:42:28.888Z,6.53
2019-01-16T13:45:16.292Z,5.80
2019-01-16T13:48:03.596Z,6.90
2019-01-16T13:51:08.145Z,6.00
2019-01-16T13:54:07.857Z,6.10
2019-01-16T13:57:08.687Z,6.50
2019-01-16T13:59:57.878Z,5.67
2019-01-16T14:02:49.592Z,5.77
2019-01-16T14:05:44.352Z,6.77
2019-01-16T14:08:48.137Z,7.13
2019-01-16T14:11:27.698Z,6.53
2019-01-16T14:14:28.207Z,7.60
2019-01-16T14:17:15.601Z,6.90
2019-01-16T14:19:59.620Z,6.70
2019-01-16T14:22:44.695Z,7.90
2019-01-16T14:25:37.036Z,6.87
2019-01-16T14:28:28.835Z,7.57
2019-01-16T14:31:35.931Z,7.13
2019-01-16T14:34:42.904Z,7.33
2019-01-16T14:37:30.488Z,8.00
2019-01-16T14:40:19.193Z,7.60
2019-01-16T14:43:07.667Z,8.03
2019-01-16T14:46:15.081Z,7.80
2019-01-16T14:49:13.016Z,7.80
2019-01-16T14:52:08.895Z,7.77
2019-01-16T14:55:09.773Z,7.90
2019-01-16T14:57:58.924Z,7.60
2019-01-16T15:00:52.753Z,7.70
2019-01-16T15:03:40.309Z,7.83
2019-01-16T15:06:31.698Z,8.33
2019-01-16T15:09:33.677Z,8.97
2019-01-16T15:12:21.072Z,8.67
2019-01-16T15:15:21.803Z,8.13
2019-01-16T15:18:08.899Z,9.57
2019-01-16T15:21:06.312Z,9.60
2019-01-16T15:23:53.876Z,8.70
2019-01-16T15:26:38.376Z,8.63
2019-01-16T15:29:26.220Z,7.67
2019-01-16T15:32:05.749Z,9.10
2019-01-16T15:35:10.097Z,7.37
2019-01-16T15:37:58.786Z,7.57
2019-01-16T15:41:00.244Z,7.30
2019-01-16T15:43:47.524Z,8.50
2019-01-16T15:46:41.291Z,8.10
2019-01-16T15:49:39.165Z,7.60
2019-01-16T15:52:32.208Z,8.40
2019-01-16T15:55:23.268Z,8.23
2019-01-16T15:58:11.357Z,8.03
2019-01-16T16:01:00.615Z,7.63
2019-01-16T16:03:42.128Z,7.80
2019-01-16T16:06:39.867Z,7.50
2019-01-16T16:09:32.003Z,6.90
2019-01-16T16:12:20.689Z,6.83
2019-01-16T16:15:00.519Z,8.07
2019-01-16T16:17:55.422Z,8.40
2019-01-16T16:20:30.488Z,7.00
2019-01-16T16:23:08.661Z,7.30
2019-01-16T16:25:56.843Z,7.30
2019-01-16T16:28:39.539Z,7.15
2019-01-16T16:31:32.784Z,7.47
2019-01-16T16:34:39.809Z,7.53
2019-01-16T16:37:28.950Z,7.67
2019-01-16T16:40:17.719Z,8.33
2019-01-16T16:43:01.954Z,8.07
2019-01-16T16:45:50.575Z,9.03
2019-01-16T16:48:41.937Z,8.73
2019-01-16T16:51:29.515Z,9.17
2019-01-16T16:54:19.107Z,9.37
2019-01-16T16:57:08.557Z,7.83
2019-01-16T16:59:56.722Z,8.53
2019-01-16T17:02:50.847Z,7.83
2019-01-16T17:05:38.860Z,7.40
2019-01-16T17:08:27.563Z,7.43
2019-01-16T17:11:12.676Z,8.00
2019-01-16T17:13:59.943Z,6.67
2019-01-16T17:16:47.492Z,8.95
2019-01-16T17:19:30.656Z,7.50
2019-01-16T17:22:17.644Z,7.30
2019-01-16T17:25:05.760Z,8.57
2019-01-16T17:27:57.543Z,7.50
2019-01-16T17:30:45.792Z,6.07
2019-01-16T17:33:33.552Z,3.47
2019-01-16T17:36:20.891Z,1.17
2019-01-16T17:39:15.373Z,1.40
2019-01-16T17:42:03.956Z,1.03
2019-01-16T17:45:06.464Z,1.10
2019-01-16T17:47:50.948Z,1.13
2019-01-16T17:50:42.356Z,1.20
2019-01-16T17:53:29.387Z,1.27
2019-01-16T17:56:24.111Z,1.83
2019-01-16T17:59:31.574Z,1.80
2019-01-16T18:02:20.530Z,2.03
2019-01-16T18:05:08.135Z,2.20
2019-01-16T18:07:59.106Z,2.60
2019-01-16T18:10:57.080Z,2.50
2019-01-16T18:13:39.843Z,3.17
2019-01-16T18:16:35.156Z,2.90
2019-01-16T18:19:24.704Z,3.20
2019-01-16T18:22:13.436Z,2.67
2019-01-16T18:25:01.524Z,2.80
2019-01-16T18:27:49.589Z,2.22
2019-01-16T18:30:47.847Z,2.87
2019-01-16T18:33:52.455Z,2.30
2019-01-16T18:36:51.013Z,2.20
2019-01-16T18:39:28.433Z,2.30
2019-01-16T18:42:16.569Z,1.47
2019-01-16T18:45:04.820Z,1.70
2019-01-16T18:48:11.776Z,1.10
2019-01-16T18:51:06.312Z,1.33
2019-01-16T18:53:53.401Z,1.33
2019-01-16T18:56:41.076Z,1.30
2019-01-16T18:59:29.661Z,1.63
2019-01-16T19:02:18.821Z,1.60
2019-01-16T19:05:11.083Z,1.87
2019-01-16T19:07:58.572Z,1.25
2019-01-16T19:10:41.749Z,1.43
2019-01-16T19:13:30.445Z,1.10
2019-01-16T19:16:16.953Z,0.97
2019-01-16T19:19:24.173Z,1.03
2019-01-16T19:22:16.254Z,1.77
2019-01-16T19:25:16.876Z,1.73
2019-01-16T19:28:17.518Z,1.47
2019-01-16T19:31:05.363Z,1.40
2019-01-16T19:33:58.092Z,1.27
2019-01-16T19:36:45.872Z,0.70
2019-01-16T19:39:46.541Z,0.80
2019-01-16T19:42:37.997Z,0.90
2019-01-16T19:45:38.864Z,1.20
2019-01-16T19:48:27.517Z,0.62
2019-01-16T19:51:19.092Z,0.60
2019-01-16T19:53:57.143Z,0.60
2019-01-16T19:56:44.831Z,0.40
2019-01-16T19:59:32.877Z,0.60
2019-01-16T20:02:21.012Z,0.50
2019-01-16T20:05:12.736Z,0.80
2019-01-16T20:08:03.665Z,1.00
2019-01-16T20:10:41.990Z,0.83
2019-01-16T20:13:18.972Z,0.97
2019-01-16T20:16:06.640Z,1.47
2019-01-16T20:18:50.168Z,0.97
2019-01-16T20:21:56.815Z,1.30
2019-01-16T20:24:44.589Z,1.50
2019-01-16T20:27:33.851Z,1.57
2019-01-16T20:30:21.338Z,1.70
2019-01-16T20:33:18.732Z,1.70
2019-01-16T20:36:00.356Z,1.47
2019-01-16T20:38:47.848Z,1.60
2019-01-16T20:41:46.457Z,1.60
2019-01-16T20:44:41.201Z,1.90
2019-01-16T20:47:26.540Z,1.73
2019-01-16T20:50:22.282Z,1.80
2019-01-16T20:53:19.815Z,1.60
2019-01-16T20:56:18.193Z,1.33
2019-01-16T20:59:10.572Z,1.57
2019-01-16T21:02:10.857Z,1.50
2019-01-16T21:04:59.583Z,1.50
2019-01-16T21:07:48.185Z,1.50
2019-01-16T21:10:36.802Z,1.97
2019-01-16T21:13:20.856Z,2.27
2019-01-16T21:16:09.559Z,2.50
2019-01-16T21:18:58.166Z,2.83
2019-01-16T21:21:47.347Z,3.10
2019-01-16T21:24:51.360Z,3.73
2019-01-16T21:27:40.046Z,3.57
2019-01-16T21:30:33.296Z,4.40
2019-01-16T21:33:40.508Z,4.47
2019-01-16T21:36:35.036Z,4.47
2019-01-16T21:39:25.296Z,5.07
2019-01-16T21:42:13.871Z,5.70
2019-01-16T21:45:02.493Z,5.60
2019-01-16T21:47:51.084Z,5.83
2019-01-16T21:50:44.484Z,5.80
2019-01-16T21:53:36.211Z,5.73
2019-01-16T21:56:40.708Z,5.10
2019-01-16T21:59:29.947Z,5.80
2019-01-16T22:02:22.235Z,4.70
2019-01-16T22:05:16.887Z,5.70
2019-01-16T22:08:20.952Z,4.53
2019-01-16T22:11:14.602Z,4.62
2019-01-16T22:14:06.097Z,4.10
2019-01-16T22:16:57.448Z,3.80
2019-01-16T22:20:04.789Z,4.23
2019-01-16T22:23:08.516Z,4.03
2019-01-16T22:26:03.312Z,3.73
2019-01-16T22:28:50.768Z,2.90
2019-01-16T22:31:40.762Z,2.50
2019-01-16T22:34:38.988Z,2.80
2019-01-16T22:37:20.255Z,1.83
2019-01-16T22:40:15.451Z,2.50
2019-01-16T22:43:04.292Z,2.43
2019-01-16T22:45:45.855Z,2.20
2019-01-16T22:48:53.388Z,2.20
2019-01-16T22:51:40.623Z,1.60
2019-01-16T22:54:25.571Z,1.47
2019-01-16T22:57:06.099Z,2.17
2019-01-16T22:59:53.864Z,1.62
2019-01-16T23:02:42.433Z,1.73
2019-01-16T23:05:30.551Z,1.90
2019-01-16T23:08:25.587Z,1.40
2019-01-16T23:11:27.123Z,1.43
2019-01-16T23:14:15.747Z,2.67
2019-01-16T23:17:08.148Z,2.30
2019-01-16T23:20:02.332Z,1.13
2019-01-16T23:23:02.212Z,1.47
2019-01-16T23:25:50.199Z,1.80
2019-01-16T23:28:43.176Z,1.20
2019-01-16T23:31:41.547Z,1.63
2019-01-16T23:34:18.963Z,1.47
2019-01-16T23:37:08.180Z,1.10
2019-01-16T23:39:57.404Z,1.63
2019-01-16T23:42:49.395Z,1.20
2019-01-16T23:45:47.092Z,1.87
2019-01-16T23:48:42.276Z,0.97
2019-01-16T23:51:37.627Z,1.60
2019-01-16T23:54:25.459Z,2.40
2019-01-16T23:57:14.719Z,1.20
